Time;durP1;ratioP1;P1;durP2;ratioP2;P2;SDS_P1;SDS_P2;PMS_P1;PMS_P2;Temp;Humidity;BMP_temperature;BMP_pressure;BME280_temperature;BME280_humidity;BME280_pressure;Samples;Min_cycle;Max_cycle;Signal;HPM_P1;HPM_P2
2022/06/24 00:01:55;;;;;;;0.50;0.20;;;19.80;99.90;;;;;;5081634;28;20474;-72
2022/06/24 00:04:23;;;;;;;0.80;0.20;;;19.90;99.90;;;;;;5084650;28;20462;-72
2022/06/24 00:06:53;;;;;;;0.50;0.30;;;20.10;99.90;;;;;;5100632;28;20545;-72
2022/06/24 00:09:23;;;;;;;0.50;0.20;;;20.20;99.90;;;;;;5105710;28;20480;-72
2022/06/24 00:12:02;;;;;;;1.17;0.47;;;20.20;99.90;;;;;;5103546;28;20473;-72
2022/06/24 00:14:29;;;;;;;0.50;0.20;;;20.20;99.90;;;;;;5103054;28;20534;-71
2022/06/24 00:17:00;;;;;;;1.77;0.40;;;20.30;99.90;;;;;;5100380;28;20481;-71
2022/06/24 00:19:28;;;;;;;0.60;0.30;;;20.20;99.90;;;;;;5093203;28;20532;-71
2022/06/24 00:22:00;;;;;;;1.73;0.30;;;20.10;99.90;;;;;;5099584;28;20527;-73
2022/06/24 00:24:29;;;;;;;2.03;0.30;;;20.10;99.90;;;;;;5088462;28;20557;-72
2022/06/24 00:26:56;;;;;;;0.70;0.40;;;20.20;99.90;;;;;;5078609;28;20454;-72
2022/06/24 00:29:25;;;;;;;0.60;0.30;;;20.20;99.90;;;;;;5094506;28;20460;-72
2022/06/24 00:32:11;;;;;;;1.10;0.20;;;20.20;99.90;;;;;;5117373;28;20457;-72
2022/06/24 00:34:42;;;;;;;0.50;0.20;;;20.00;99.90;;;;;;5076803;28;20439;-73
2022/06/24 00:37:33;;;;;;;6.73;0.33;;;19.90;99.90;;;;;;5076989;28;20489;-72
2022/06/24 00:40:04;;;;;;;1.00;0.27;;;19.70;99.90;;;;;;5076743;28;20457;-72
2022/06/24 00:42:32;;;;;;;0.70;0.30;;;19.60;99.90;;;;;;5092208;28;20799;-72
2022/06/24 00:45:15;;;;;;;1.60;0.30;;;19.60;99.90;;;;;;5096926;28;20430;-72
2022/06/24 00:47:47;;;;;;;0.43;0.20;;;19.50;99.90;;;;;;5095518;28;20458;-72
2022/06/24 00:50:21;;;;;;;1.07;0.20;;;19.40;99.90;;;;;;5110512;28;20468;-72
2022/06/24 00:52:50;;;;;;;0.80;0.40;;;19.40;99.90;;;;;;5076185;28;20437;-73
2022/06/24 00:55:25;;;;;;;0.63;0.30;;;19.40;99.90;;;;;;5077113;28;20512;-71
2022/06/24 00:57:52;;;;;;;0.93;0.20;;;19.40;99.90;;;;;;5095773;28;20894;-71
2022/06/24 01:00:20;;;;;;;0.50;0.20;;;19.50;99.90;;;;;;5094619;28;20473;-72
2022/06/24 01:02:48;;;;;;;1.27;0.40;;;19.60;99.90;;;;;;5096531;28;20770;-71
2022/06/24 01:05:18;;;;;;;0.77;0.30;;;19.60;99.90;;;;;;5094240;28;20788;-72
2022/06/24 01:07:45;;;;;;;0.50;0.30;;;19.50;99.90;;;;;;5117489;28;20895;-71
2022/06/24 01:10:13;;;;;;;0.70;0.40;;;19.60;99.90;;;;;;5098029;28;20469;-72
2022/06/24 01:12:42;;;;;;;1.10;0.40;;;19.60;99.90;;;;;;5095601;28;20772;-71
2022/06/24 01:15:09;;;;;;;0.40;0.20;;;19.50;99.90;;;;;;5080260;28;20509;-72
2022/06/24 01:17:37;;;;;;;0.80;0.30;;;19.50;99.90;;;;;;5080155;28;20491;-73
2022/06/24 01:20:05;;;;;;;0.83;0.40;;;19.50;99.90;;;;;;5096450;28;20460;-72
2022/06/24 01:22:33;;;;;;;0.87;0.30;;;19.30;99.90;;;;;;5095398;28;20452;-72
2022/06/24 01:25:00;;;;;;;0.80;0.33;;;19.20;99.90;;;;;;5090651;28;20485;-72
2022/06/24 01:27:27;;;;;;;0.47;0.30;;;19.10;99.90;;;;;;5086287;28;20493;-72
2022/06/24 01:29:55;;;;;;;0.50;0.30;;;19.10;99.90;;;;;;5076259;28;20465;-72
2022/06/24 01:32:22;;;;;;;1.37;0.40;;;19.00;99.90;;;;;;5077294;28;20913;-72
2022/06/24 01:34:49;;;;;;;0.70;0.30;;;19.00;99.90;;;;;;5116569;28;20471;-72
2022/06/24 01:37:16;;;;;;;3.17;0.50;;;19.00;99.90;;;;;;5094326;28;20546;-71
2022/06/24 01:39:45;;;;;;;1.00;0.50;;;18.90;99.90;;;;;;5097359;28;20511;-72
2022/06/24 01:42:12;;;;;;;2.00;0.50;;;18.80;99.90;;;;;;5097893;28;20461;-72
2022/06/24 01:44:39;;;;;;;3.00;0.50;;;18.80;99.90;;;;;;5114198;28;20445;-71
2022/06/24 01:47:07;;;;;;;1.17;0.80;;;18.80;99.90;;;;;;5097035;28;20877;-71
2022/06/24 01:49:34;;;;;;;0.67;0.47;;;18.70;99.90;;;;;;5096903;28;20452;-72
2022/06/24 01:52:01;;;;;;;2.20;0.50;;;18.70;99.90;;;;;;5104086;28;20455;-72
2022/06/24 01:54:28;;;;;;;1.00;0.50;;;18.70;99.90;;;;;;5107265;28;20461;-72
2022/06/24 01:56:56;;;;;;;2.20;0.60;;;18.80;99.90;;;;;;5097242;28;20926;-72
2022/06/24 01:59:24;;;;;;;2.37;0.50;;;18.90;99.90;;;;;;5091976;28;20462;-72
2022/06/24 02:01:51;;;;;;;4.60;0.50;;;19.00;99.90;;;;;;5115082;28;20815;-72
2022/06/24 02:04:18;;;;;;;2.30;0.50;;;19.00;99.90;;;;;;5100619;28;20449;-73
2022/06/24 02:06:45;;;;;;;0.63;0.40;;;19.00;99.90;;;;;;5097362;28;20535;-73
2022/06/24 02:09:16;;;;;;;0.77;0.30;;;18.90;99.90;;;;;;5090610;28;20473;-72
2022/06/24 02:14:30;;;;;;;1.17;0.40;;;18.80;99.90;;;;;;5095725;28;20915;-72
2022/06/24 02:16:57;;;;;;;1.03;0.33;;;18.80;99.90;;;;;;5096520;28;20554;-72
2022/06/24 02:19:25;;;;;;;1.80;0.50;;;18.80;99.90;;;;;;5104003;28;20513;-72
2022/06/24 02:21:52;;;;;;;1.10;0.30;;;18.80;99.90;;;;;;5093529;28;20466;-72
2022/06/24 02:24:19;;;;;;;0.77;0.50;;;18.80;99.90;;;;;;5076321;28;20648;-72
2022/06/24 02:26:46;;;;;;;0.80;0.30;;;18.80;99.90;;;;;;5078895;28;20485;-72
2022/06/24 02:29:13;;;;;;;1.57;0.40;;;18.80;99.90;;;;;;5096608;28;20514;-72
2022/06/24 02:31:42;;;;;;;0.50;0.40;;;18.90;99.90;;;;;;5077917;28;20462;-72
2022/06/24 02:34:09;;;;;;;1.17;0.30;;;18.80;99.90;;;;;;5076472;28;20442;-72
2022/06/24 02:36:36;;;;;;;0.63;0.30;;;18.90;99.90;;;;;;5082855;28;20454;-71
2022/06/24 02:39:05;;;;;;;1.17;0.40;;;18.90;99.90;;;;;;5099582;28;20461;-72
2022/06/24 02:41:32;;;;;;;0.80;0.40;;;18.90;99.90;;;;;;5099484;28;20749;-72
2022/06/24 02:43:59;;;;;;;1.13;0.40;;;18.80;99.90;;;;;;5098921;28;20537;-72
2022/06/24 02:46:26;;;;;;;0.70;0.40;;;18.90;99.90;;;;;;5106377;28;20480;-72
2022/06/24 02:48:54;;;;;;;0.80;0.40;;;18.80;99.90;;;;;;5087312;28;20500;-72
2022/06/24 02:51:21;;;;;;;2.23;0.50;;;18.80;99.90;;;;;;5078820;28;20511;-73
2022/06/24 02:53:48;;;;;;;1.27;0.50;;;18.90;99.90;;;;;;5085737;28;20453;-72
2022/06/24 02:56:15;;;;;;;0.43;0.30;;;18.90;99.90;;;;;;5081851;28;20500;-72
2022/06/24 02:58:44;;;;;;;0.80;0.40;;;18.90;99.90;;;;;;5078961;28;20508;-72
2022/06/24 03:01:11;;;;;;;0.80;0.43;;;18.80;99.90;;;;;;5078697;28;20454;-72
2022/06/24 03:03:39;;;;;;;0.50;0.40;;;18.70;99.90;;;;;;5089232;28;20464;-72
2022/06/24 03:06:08;;;;;;;2.13;0.53;;;18.60;99.90;;;;;;5118862;28;20488;-72
2022/06/24 03:08:37;;;;;;;0.80;0.50;;;18.50;99.90;;;;;;5119454;28;20449;-72
2022/06/24 03:11:03;;;;;;;1.43;0.40;;;18.50;99.90;;;;;;5119445;28;20519;-73
2022/06/24 03:13:30;;;;;;;2.17;0.40;;;18.60;99.90;;;;;;5099220;28;20464;-73
2022/06/24 03:15:58;;;;;;;1.47;0.43;;;18.70;99.90;;;;;;5120356;28;20459;-72
2022/06/24 03:18:25;;;;;;;2.30;0.50;;;18.60;99.90;;;;;;5119721;28;20757;-72
2022/06/24 03:20:53;;;;;;;1.10;0.40;;;18.70;99.90;;;;;;5111562;28;20491;-72
2022/06/24 03:23:21;;;;;;;2.03;0.50;;;18.70;99.90;;;;;;5107725;28;20944;-72
2022/06/24 03:25:48;;;;;;;0.70;0.40;;;18.50;99.90;;;;;;5119277;28;20592;-72
2022/06/24 03:28:15;;;;;;;0.87;0.43;;;18.40;99.90;;;;;;5120024;28;20437;-73
2022/06/24 03:30:42;;;;;;;2.70;0.47;;;18.50;99.90;;;;;;5103713;28;20483;-73
2022/06/24 03:33:09;;;;;;;1.33;0.40;;;18.50;99.90;;;;;;5099583;28;20941;-73
2022/06/24 03:35:36;;;;;;;0.70;0.40;;;18.40;99.90;;;;;;5099122;28;20454;-72
2022/06/24 03:38:04;;;;;;;1.00;0.40;;;18.30;99.90;;;;;;5099670;28;20495;-73
2022/06/24 03:40:32;;;;;;;2.40;0.50;;;18.50;99.90;;;;;;5086125;28;20467;-73
2022/06/24 03:42:59;;;;;;;0.70;0.40;;;18.40;99.90;;;;;;5078862;28;20451;-73
2022/06/24 03:45:27;;;;;;;1.20;0.40;;;18.30;99.90;;;;;;5078627;28;20455;-73
2022/06/24 03:47:54;;;;;;;1.07;0.40;;;18.20;99.90;;;;;;5095102;28;20569;-72
2022/06/24 03:50:21;;;;;;;1.23;0.67;;;18.20;99.90;;;;;;5098648;28;20458;-72
2022/06/24 03:52:48;;;;;;;0.70;0.40;;;18.20;99.90;;;;;;5091668;28;20496;-73
2022/06/24 03:55:15;;;;;;;0.80;0.40;;;18.20;99.90;;;;;;5078658;28;20454;-72
2022/06/24 03:57:43;;;;;;;0.60;0.40;;;18.10;99.90;;;;;;5077597;28;20466;-73
2022/06/24 04:00:11;;;;;;;0.60;0.40;;;18.10;99.90;;;;;;5078227;28;20450;-73
2022/06/24 04:02:38;;;;;;;1.17;0.40;;;18.10;99.90;;;;;;5082795;28;20916;-72
2022/06/24 04:05:07;;;;;;;0.90;0.50;;;18.10;99.90;;;;;;5079043;28;20461;-73
2022/06/24 04:07:34;;;;;;;2.43;0.50;;;18.10;99.90;;;;;;5097849;28;20489;-73
2022/06/24 04:10:01;;;;;;;1.73;0.30;;;18.20;99.90;;;;;;5097911;28;20460;-72
2022/06/24 04:12:28;;;;;;;1.00;0.40;;;18.20;99.90;;;;;;5078237;28;20466;-73
2022/06/24 04:15:17;;;;;;;0.73;0.50;;;18.20;99.90;;;;;;5077920;28;20502;-73
2022/06/24 04:17:44;;;;;;;1.10;0.40;;;18.40;99.90;;;;;;5078000;28;20470;-74
2022/06/24 04:20:12;;;;;;;0.70;0.40;;;18.30;99.90;;;;;;5079635;28;21005;-73
2022/06/24 04:22:39;;;;;;;0.70;0.40;;;18.40;99.90;;;;;;5118413;28;20892;-73
2022/06/24 04:25:07;;;;;;;1.43;0.40;;;18.40;99.90;;;;;;5102627;28;20461;-73
2022/06/24 04:27:34;;;;;;;0.90;0.40;;;18.40;99.90;;;;;;5096780;28;20489;-72
2022/06/24 04:30:05;;;;;;;2.40;0.40;;;18.40;99.90;;;;;;5099431;28;20463;-72
2022/06/24 04:32:32;;;;;;;1.13;0.50;;;18.40;99.90;;;;;;5113535;28;20900;-72
2022/06/24 04:34:59;;;;;;;0.70;0.40;;;18.40;99.90;;;;;;5076825;28;20466;-73
2022/06/24 04:37:27;;;;;;;1.07;0.50;;;18.60;99.90;;;;;;5077064;28;20447;-73
2022/06/24 04:39:54;;;;;;;1.00;0.50;;;18.60;99.90;;;;;;5076636;28;20994;-73
2022/06/24 04:42:21;;;;;;;2.13;0.47;;;18.70;99.90;;;;;;5083706;28;20461;-71
2022/06/24 04:44:48;;;;;;;0.90;0.50;;;18.90;99.90;;;;;;5097244;28;20514;-74
2022/06/24 04:47:16;;;;;;;4.30;0.40;;;18.90;99.90;;;;;;5094804;28;20481;-72
2022/06/24 04:49:43;;;;;;;1.27;0.50;;;19.10;99.90;;;;;;5117627;28;20933;-73
2022/06/24 04:52:10;;;;;;;1.30;0.47;;;19.10;99.90;;;;;;5101513;28;20511;-73
2022/06/24 04:54:37;;;;;;;1.30;0.40;;;19.20;99.90;;;;;;5096497;28;20907;-73
2022/06/24 04:57:05;;;;;;;2.67;0.50;;;19.30;99.90;;;;;;5102031;28;20513;-72
2022/06/24 04:59:32;;;;;;;1.23;0.50;;;19.20;99.90;;;;;;5114582;28;20498;-73
2022/06/24 05:01:59;;;;;;;0.50;0.50;;;19.20;99.90;;;;;;5096838;28;20724;-73
2022/06/24 05:04:28;;;;;;;0.80;0.80;;;19.30;99.90;;;;;;5096758;28;20876;-75
2022/06/24 05:06:55;;;;;;;0.60;0.50;;;19.20;99.90;;;;;;5080432;28;20544;-74
2022/06/24 05:09:22;;;;;;;1.60;0.47;;;19.20;99.90;;;;;;5077560;28;20450;-74
2022/06/24 05:11:50;;;;;;;2.07;0.57;;;19.30;99.90;;;;;;5077925;28;20450;-76
2022/06/24 05:14:18;;;;;;;1.00;0.50;;;19.40;99.90;;;;;;5078819;28;20474;-76
2022/06/24 05:16:45;;;;;;;0.80;0.40;;;19.50;99.90;;;;;;5076225;28;20636;-75
2022/06/24 05:19:12;;;;;;;1.27;0.50;;;19.60;99.90;;;;;;5076826;28;20454;-75
2022/06/24 05:21:43;;;;;;;2.60;0.70;;;19.70;99.90;;;;;;5077256;28;20454;-74
2022/06/24 05:24:11;;;;;;;2.23;0.40;;;19.60;99.90;;;;;;5075735;28;20536;-75
2022/06/24 05:26:38;;;;;;;1.00;0.60;;;19.70;99.90;;;;;;5075239;28;21210;-75
2022/06/24 05:29:05;;;;;;;2.50;0.50;;;19.80;99.90;;;;;;5074725;28;20908;-75
2022/06/24 05:31:32;;;;;;;0.67;0.40;;;19.80;99.90;;;;;;5075117;28;20744;-74
2022/06/24 05:33:59;;;;;;;2.40;0.50;;;19.90;99.90;;;;;;5079182;28;20473;-74
2022/06/24 05:36:26;;;;;;;1.87;0.40;;;19.80;99.90;;;;;;5098512;28;20449;-74
2022/06/24 05:38:55;;;;;;;2.13;0.50;;;19.90;99.90;;;;;;5098950;28;20434;-75
2022/06/24 05:44:03;;;;;;;1.30;0.60;;;20.00;99.90;;;;;;5111667;28;20509;-75
2022/06/24 05:46:30;;;;;;;0.83;0.63;;;20.10;99.90;;;;;;5117444;28;20449;-76
2022/06/24 05:48:58;;;;;;;1.87;0.63;;;20.20;99.90;;;;;;5116390;28;20783;-75
2022/06/24 05:51:25;;;;;;;1.27;0.50;;;20.40;99.90;;;;;;5110770;28;20485;-74
2022/06/24 05:56:39;;;;;;;1.53;0.57;;;20.50;99.90;;;;;;5095797;28;20433;-77
2022/06/24 05:59:07;;;;;;;0.73;0.50;;;20.60;99.90;;;;;;5094327;28;20884;-76
2022/06/24 06:01:34;;;;;;;1.87;0.60;;;20.70;99.90;;;;;;5077744;28;20471;-76
2022/06/24 06:04:01;;;;;;;1.10;0.50;;;20.80;99.90;;;;;;5075562;28;20457;-76
2022/06/24 06:06:28;;;;;;;1.10;0.60;;;20.70;99.90;;;;;;5075269;28;20462;-75
2022/06/24 06:08:58;;;;;;;1.30;0.47;;;20.80;99.90;;;;;;5082509;28;20486;-75
2022/06/24 06:11:26;;;;;;;1.80;0.50;;;20.90;99.90;;;;;;5098012;28;20468;-77
2022/06/24 06:13:55;;;;;;;0.67;0.43;;;20.90;99.90;;;;;;5098580;28;20924;-77
2022/06/24 06:16:22;;;;;;;0.97;0.50;;;20.90;99.90;;;;;;5098443;28;20453;-77
2022/06/24 06:18:50;;;;;;;1.03;0.50;;;21.10;99.90;;;;;;5099646;28;21063;-75
2022/06/24 06:21:17;;;;;;;0.80;0.40;;;21.10;99.90;;;;;;5101230;28;20534;-75
2022/06/24 06:23:45;;;;;;;1.97;0.50;;;21.20;94.00;;;;;;5097598;28;20446;-75
2022/06/24 06:26:14;;;;;;;1.00;0.40;;;21.20;92.10;;;;;;5098880;28;20832;-75
2022/06/24 06:28:42;;;;;;;1.20;0.50;;;21.20;73.10;;;;;;5103251;28;20529;-75
2022/06/24 06:31:10;;;;;;;1.93;0.60;;;21.30;95.30;;;;;;5105135;28;20498;-74
2022/06/24 06:33:37;;;;;;;0.70;0.50;;;21.30;59.50;;;;;;5114526;28;20539;-74
2022/06/24 06:36:05;;;;;;;1.23;0.50;;;21.30;62.80;;;;;;5108465;28;20453;-74
2022/06/24 06:38:33;;;;;;;1.40;0.50;;;21.30;86.90;;;;;;5106403;28;20453;-75
2022/06/24 06:41:00;;;;;;;1.87;0.60;;;21.40;84.90;;;;;;5105839;28;20515;-74
2022/06/24 06:43:32;;;;;;;1.43;0.73;;;21.50;73.70;;;;;;5097534;28;20449;-73
2022/06/24 06:45:59;;;;;;;1.40;0.53;;;21.50;63.10;;;;;;5090035;28;20472;-73
2022/06/24 06:48:27;;;;;;;1.33;0.50;;;21.70;59.90;;;;;;5113765;28;20799;-73
2022/06/24 06:50:56;;;;;;;0.80;0.50;;;21.70;57.60;;;;;;5105639;28;20551;-73
2022/06/24 06:53:23;;;;;;;1.20;0.50;;;21.80;49.40;;;;;;5099396;28;20445;-77
2022/06/24 06:55:51;;;;;;;1.93;0.57;;;21.90;45.40;;;;;;5100488;28;20510;-78
2022/06/24 06:58:21;;;;;;;1.30;0.50;;;21.90;32.90;;;;;;5100765;28;20787;-77
2022/06/24 07:00:58;;;;;;;1.03;0.50;;;21.80;35.20;;;;;;5099481;28;20477;-71
2022/06/24 07:03:25;;;;;;;0.70;0.50;;;22.00;38.40;;;;;;5098912;28;20453;-78
2022/06/24 07:05:52;;;;;;;1.77;0.60;;;22.10;31.10;;;;;;5081084;28;20556;-76
2022/06/24 07:08:19;;;;;;;2.00;0.50;;;22.30;15.60;;;;;;5083026;28;20518;-74
2022/06/24 07:10:47;;;;;;;2.03;0.60;;;22.40;1.00;;;;;;5096533;28;20466;-77
2022/06/24 07:13:19;;;;;;;1.73;0.50;;;22.50;1.00;;;;;;5093483;28;20454;-76
2022/06/24 07:15:48;;;;;;;0.80;0.47;;;22.50;1.00;;;;;;5092705;28;20453;-79
2022/06/24 07:18:17;;;;;;;1.00;0.50;;;22.60;1.00;;;;;;5097670;28;20440;-78
2022/06/24 07:20:44;;;;;;;1.00;0.57;;;22.70;1.00;;;;;;5103917;28;20506;-77
2022/06/24 07:23:11;;;;;;;1.57;0.70;;;22.60;1.00;;;;;;5093785;28;20495;-76
2022/06/24 07:25:38;;;;;;;1.27;0.80;;;22.80;1.00;;;;;;5100550;28;21067;-79
2022/06/24 07:28:06;;;;;;;0.53;0.47;;;22.80;1.00;;;;;;5095274;28;21075;-78
2022/06/24 07:30:36;;;;;;;0.87;0.60;;;22.90;1.00;;;;;;5094170;28;20999;-78
2022/06/24 07:33:03;;;;;;;0.80;0.50;;;22.90;1.00;;;;;;5097141;28;20445;-76
2022/06/24 07:35:32;;;;;;;0.80;0.60;;;22.90;1.00;;;;;;5097588;28;20893;-76
2022/06/24 07:37:59;;;;;;;0.80;0.50;;;22.90;1.00;;;;;;5095264;28;20504;-77
2022/06/24 07:40:26;;;;;;;1.80;0.80;;;22.80;1.00;;;;;;5095524;28;20457;-77
2022/06/24 07:42:53;;;;;;;0.90;0.60;;;22.70;1.00;;;;;;5095516;28;20900;-78
2022/06/24 07:45:20;;;;;;;1.10;0.70;;;22.70;1.00;;;;;;5093812;28;20453;-79
2022/06/24 07:47:48;;;;;;;1.00;0.50;;;22.70;1.00;;;;;;5095713;28;20481;-78
2022/06/24 07:50:15;;;;;;;0.63;0.50;;;22.80;1.00;;;;;;5095234;28;20514;-78
2022/06/24 07:52:43;;;;;;;1.83;0.60;;;23.00;1.00;;;;;;5095493;28;20438;-79
2022/06/24 07:57:55;;;;;;;1.37;0.80;;;23.10;1.00;;;;;;5084632;28;20890;-79
2022/06/24 08:00:22;;;;;;;1.20;0.70;;;23.30;1.00;;;;;;5095558;28;20556;-79
2022/06/24 08:02:52;;;;;;;1.37;0.50;;;23.30;1.00;;;;;;5092261;28;20917;-78
2022/06/24 08:05:20;;;;;;;0.80;0.60;;;23.30;1.00;;;;;;5095851;28;20461;-77
2022/06/24 08:07:49;;;;;;;1.77;0.70;;;23.30;1.00;;;;;;5092695;28;20485;-78
2022/06/24 08:10:16;;;;;;;0.90;0.60;;;23.30;1.00;;;;;;5094339;28;20487;-77
2022/06/24 08:12:43;;;;;;;0.83;0.60;;;23.40;1.00;;;;;;5092742;28;20200;-76
2022/06/24 08:15:11;;;;;;;0.80;0.50;;;23.50;1.00;;;;;;5088786;28;20486;-77
2022/06/24 08:17:55;;;;;;;1.00;0.60;;;23.50;1.00;;;;;;5084762;28;20465;-75
2022/06/24 08:20:27;;;;;;;1.03;0.53;;;23.60;1.00;;;;;;5096412;28;20461;-74
2022/06/24 08:22:56;;;;;;;0.87;0.50;;;23.60;99.90;;;;;;5093841;28;20446;-75
2022/06/24 08:25:23;;;;;;;0.50;0.40;;;23.80;99.90;;;;;;5090112;28;20477;-73
2022/06/24 08:27:50;;;;;;;0.50;0.50;;;24.10;1.00;;;;;;5109720;28;20959;-73
2022/06/24 08:30:17;;;;;;;0.50;0.47;;;24.00;99.90;;;;;;5094839;28;20852;-73
2022/06/24 08:32:44;;;;;;;1.10;0.50;;;24.10;1.00;;;;;;5095169;28;20560;-73
2022/06/24 08:35:11;;;;;;;0.60;0.40;;;24.20;99.90;;;;;;5088501;28;20458;-73
2022/06/24 08:37:38;;;;;;;0.57;0.40;;;24.30;1.00;;;;;;5093726;28;20446;-73
2022/06/24 08:40:08;;;;;;;0.83;0.40;;;24.30;1.00;;;;;;5093998;28;20453;-73
2022/06/24 08:42:37;;;;;;;1.80;0.50;;;24.40;1.00;;;;;;5093504;28;20453;-73
2022/06/24 08:45:05;;;;;;;1.33;0.50;;;24.40;49.10;;;;;;5088775;28;20462;-73
2022/06/24 08:47:33;;;;;;;0.80;0.50;;;24.70;1.00;;;;;;5092539;28;20499;-74
2022/06/24 08:50:00;;;;;;;0.90;0.50;;;24.90;1.00;;;;;;5092563;28;20795;-74
2022/06/24 08:52:27;;;;;;;2.13;1.93;;;24.90;99.90;;;;;;5092362;28;20450;-74
2022/06/24 08:54:55;;;;;;;1.93;0.50;;;24.90;1.00;;;;;;5083285;28;20977;-75
2022/06/24 08:57:24;;;;;;;1.03;0.40;;;24.80;1.00;;;;;;5094282;28;20445;-75
2022/06/24 08:59:57;;;;;;;0.60;0.40;;;24.80;99.90;;;;;;5092121;28;21231;-75
2022/06/24 09:02:24;;;;;;;0.60;0.50;;;24.60;1.00;;;;;;5089764;28;20511;-72
2022/06/24 09:04:51;;;;;;;0.70;0.40;;;24.50;1.00;;;;;;5090132;28;20438;-73
2022/06/24 09:07:24;;;;;;;1.27;0.50;;;24.60;99.90;;;;;;5094451;28;20480;-74
2022/06/24 09:10:00;;;;;;;0.70;0.40;;;24.80;99.90;;;;;;5091973;28;20481;-73
2022/06/24 09:12:46;;;;;;;0.97;0.50;;;24.90;99.90;;;;;;5092357;28;20457;-73
2022/06/24 09:15:16;;;;;;;0.90;0.50;;;24.90;19.70;;;;;;5094066;28;20493;-73
2022/06/24 09:17:44;;;;;;;0.60;0.40;;;25.10;99.90;;;;;;5100768;28;20449;-74
2022/06/24 09:20:13;;;;;;;1.00;0.43;;;25.30;1.00;;;;;;5104754;28;20479;-74
2022/06/24 09:22:40;;;;;;;0.80;0.40;;;25.30;1.00;;;;;;5093566;28;20446;-74
2022/06/24 09:25:08;;;;;;;0.70;0.40;;;25.20;1.00;;;;;;5093676;28;20450;-74
2022/06/24 09:27:42;;;;;;;0.87;0.40;;;25.40;99.90;;;;;;5086153;28;20869;-74
2022/06/24 09:30:10;;;;;;;0.77;0.40;;;25.10;99.90;;;;;;5093091;28;20446;-73
2022/06/24 09:32:50;;;;;;;0.80;0.30;;;25.10;1.00;;;;;;5094142;28;20557;-74
2022/06/24 09:35:17;;;;;;;1.13;0.40;;;25.30;99.90;;;;;;5094382;28;20489;-74
2022/06/24 09:37:45;;;;;;;0.50;0.40;;;25.40;99.90;;;;;;5091279;28;20450;-74
2022/06/24 09:40:21;;;;;;;0.53;0.40;;;25.40;99.90;;;;;;5092810;28;20437;-76
2022/06/24 09:42:59;;;;;;;0.50;0.40;;;25.50;99.90;;;;;;5086294;28;20987;-77
2022/06/24 09:45:42;;;;;;;0.80;0.43;;;25.70;99.90;;;;;;5095546;28;20457;-76
2022/06/24 09:48:10;;;;;;;0.60;0.40;;;25.80;99.90;;;;;;5080054;28;20570;-76
2022/06/24 09:50:37;;;;;;;0.67;0.40;;;25.90;99.90;;;;;;5094307;28;20472;-77
2022/06/24 09:53:06;;;;;;;1.07;0.40;;;25.80;99.90;;;;;;5093892;28;20477;-76
2022/06/24 09:55:35;;;;;;;0.90;0.40;;;25.80;99.90;;;;;;5095712;28;20450;-78
2022/06/24 09:58:05;;;;;;;0.73;0.50;;;25.50;99.90;;;;;;5096544;28;20457;-75
2022/06/24 10:00:42;;;;;;;0.87;0.40;;;25.40;99.90;;;;;;5092232;28;20446;-75
2022/06/24 10:03:11;;;;;;;0.60;0.30;;;25.20;99.90;;;;;;5092650;28;20442;-75
2022/06/24 10:05:41;;;;;;;1.33;0.43;;;25.40;1.00;;;;;;5092640;28;20461;-76
2022/06/24 10:08:11;;;;;;;0.90;0.60;;;25.90;1.00;;;;;;5092066;28;20503;-77
2022/06/24 10:10:43;;;;;;;1.00;0.60;;;26.30;1.00;;;;;;5085221;28;20494;-76
2022/06/24 10:13:23;;;;;;;0.97;0.60;;;26.60;99.90;;;;;;5073035;28;20501;-77
2022/06/24 10:15:51;;;;;;;1.10;1.00;;;27.10;1.00;;;;;;5074947;28;20435;-81
2022/06/24 10:18:19;;;;;;;0.70;0.50;;;27.50;1.00;;;;;;5096578;28;20721;-80
2022/06/24 10:20:49;;;;;;;0.80;0.40;;;27.80;1.00;;;;;;5084382;28;20458;-80
2022/06/24 10:23:43;;;;;;;0.70;0.50;;;27.60;1.00;;;;;;5086053;28;20457;-80
2022/06/24 10:26:12;;;;;;;0.77;0.40;;;27.70;1.00;;;;;;5088671;28;20659;-82
2022/06/24 10:29:17;;;;;;;1.07;0.70;;;27.10;1.00;;;;;;5095445;28;20477;-81
2022/06/24 10:32:06;;;;;;;0.60;0.30;;;27.00;1.00;;;;;;5084036;28;20948;-80
2022/06/24 10:34:36;;;;;;;1.07;0.60;;;27.20;1.00;;;;;;5095895;28;20438;-82
2022/06/24 10:37:24;;;;;;;2.00;0.50;;;27.10;99.90;;;;;;5098808;28;20441;-83
2022/06/24 10:39:53;;;;;;;0.90;0.50;;;26.90;1.00;;;;;;5088986;28;20449;-82
2022/06/24 10:42:21;;;;;;;0.90;0.50;;;26.90;1.00;;;;;;5103468;28;20578;-81
2022/06/24 10:44:57;;;;;;;1.23;0.50;;;27.00;38.50;;;;;;5103323;28;20446;-81
2022/06/24 10:47:38;;;;;;;1.33;0.50;;;27.20;50.70;;;;;;5098960;28;20908;-80
2022/06/24 10:50:14;;;;;;;3.03;1.23;;;27.70;99.90;;;;;;5094649;28;20947;-75
2022/06/24 10:52:55;;;;;;;1.20;0.60;;;28.10;99.90;;;;;;5094447;28;20453;-75
2022/06/24 10:55:42;;;;;;;0.60;0.50;;;27.60;99.90;;;;;;5092725;28;20454;-75
2022/06/24 10:58:13;;;;;;;1.37;0.47;;;27.60;99.90;;;;;;5093840;28;20468;-75
2022/06/24 11:00:54;;;;;;;0.80;0.50;;;28.10;99.90;;;;;;5095493;28;20889;-74
2022/06/24 11:03:38;;;;;;;1.00;0.60;;;28.30;59.40;;;;;;5083325;28;20453;-75
2022/06/24 11:06:08;;;;;;;0.80;0.63;;;28.30;30.00;;;;;;5089737;28;20461;-76
2022/06/24 11:08:38;;;;;;;1.13;0.60;;;28.20;99.90;;;;;;5098609;28;20489;-74
2022/06/24 11:11:05;;;;;;;1.10;0.70;;;28.20;99.90;;;;;;5096522;28;20449;-75
2022/06/24 11:13:33;;;;;;;1.40;0.80;;;27.60;99.90;;;;;;5076242;28;20996;-74
2022/06/24 11:16:00;;;;;;;0.80;0.60;;;27.40;99.90;;;;;;5095506;28;21015;-74
2022/06/24 11:18:38;;;;;;;0.97;0.57;;;27.30;99.90;;;;;;5094854;28;20460;-75
2022/06/24 11:21:09;;;;;;;0.90;0.60;;;27.40;99.90;;;;;;5116908;28;20537;-76
2022/06/24 11:23:37;;;;;;;1.00;0.50;;;27.30;99.90;;;;;;5091977;28;20469;-76
2022/06/24 11:26:07;;;;;;;1.30;0.70;;;27.30;99.90;;;;;;5092058;28;20498;-74
2022/06/24 11:28:35;;;;;;;1.17;0.50;;;27.10;99.90;;;;;;5115374;28;20524;-75
2022/06/24 11:31:17;;;;;;;1.37;0.60;;;27.00;1.00;;;;;;5097029;28;20463;-75
2022/06/24 11:33:47;;;;;;;2.30;0.50;;;27.00;1.00;;;;;;5077222;28;20542;-76
2022/06/24 11:36:15;;;;;;;0.80;0.60;;;27.10;99.90;;;;;;5089780;28;20462;-76
2022/06/24 11:38:53;;;;;;;1.10;0.53;;;27.20;99.90;;;;;;5086873;28;20615;-75
2022/06/24 11:41:27;;;;;;;0.90;0.60;;;27.10;99.90;;;;;;5083647;28;20473;-76
2022/06/24 11:43:54;;;;;;;0.63;0.60;;;27.10;99.90;;;;;;5093285;28;20467;-75
2022/06/24 11:46:22;;;;;;;1.30;0.50;;;27.10;99.90;;;;;;5093306;28;20946;-76
2022/06/24 11:49:02;;;;;;;0.70;0.70;;;26.90;99.90;;;;;;5077050;28;20470;-77
2022/06/24 11:51:29;;;;;;;0.60;0.40;;;26.80;99.90;;;;;;5076970;28;20469;-77
2022/06/24 11:53:57;;;;;;;0.70;0.50;;;26.90;99.90;;;;;;5079070;28;21064;-76
2022/06/24 11:56:27;;;;;;;0.83;0.40;;;26.90;99.90;;;;;;5094641;28;20507;-77
2022/06/24 11:58:54;;;;;;;0.80;0.33;;;27.00;99.90;;;;;;5092269;28;20469;-76
2022/06/24 12:01:22;;;;;;;0.67;0.40;;;27.00;99.90;;;;;;5106659;28;20465;-78
2022/06/24 12:03:52;;;;;;;0.60;0.40;;;26.90;99.90;;;;;;5115495;28;20966;-75
2022/06/24 12:06:22;;;;;;;0.83;0.40;;;26.70;99.90;;;;;;5100171;28;20467;-76
2022/06/24 12:08:50;;;;;;;0.90;0.40;;;26.70;46.50;;;;;;5088409;28;20441;-77
2022/06/24 12:11:19;;;;;;;0.80;0.50;;;26.60;1.00;;;;;;5101583;28;20469;-77
2022/06/24 12:13:57;;;;;;;0.80;0.40;;;26.50;20.90;;;;;;5095279;28;20470;-77
2022/06/24 12:16:25;;;;;;;1.00;0.50;;;26.40;62.10;;;;;;5095188;28;20530;-77
2022/06/24 12:18:56;;;;;;;0.70;0.50;;;26.40;35.30;;;;;;5093476;28;20944;-77
2022/06/24 12:21:27;;;;;;;0.63;0.40;;;26.70;99.90;;;;;;5085832;28;20453;-76
2022/06/24 12:23:54;;;;;;;1.17;0.30;;;27.10;1.00;;;;;;5095151;28;20442;-76
2022/06/24 12:26:24;;;;;;;0.80;0.40;;;27.50;1.00;;;;;;5096376;28;20460;-73
2022/06/24 12:29:01;;;;;;;0.80;0.37;;;27.60;1.00;;;;;;5094487;28;20950;-76
2022/06/24 12:31:29;;;;;;;0.60;0.40;;;27.30;1.00;;;;;;5095319;28;20548;-75
2022/06/24 12:33:58;;;;;;;3.90;0.50;;;27.20;1.00;;;;;;5095872;28;20449;-75
2022/06/24 12:36:35;;;;;;;1.13;0.77;;;26.70;1.00;;;;;;5093852;28;20530;-73
2022/06/24 12:39:06;;;;;;;0.60;0.40;;;26.40;99.90;;;;;;5093754;28;20441;-73
2022/06/24 12:41:44;;;;;;;0.80;0.40;;;26.40;48.60;;;;;;5095074;28;20544;-75
2022/06/24 12:44:11;;;;;;;0.50;0.40;;;26.50;23.70;;;;;;5093511;28;20477;-74
2022/06/24 12:52:35;;;;;;;0.70;0.40;;;25.60;1.00;;;;;;5073844;28;20509;-72
2022/06/24 12:55:04;;;;;;;0.80;0.50;;;25.00;1.00;;;;;;5073866;28;20442;-73
2022/06/24 12:57:31;;;;;;;0.63;0.43;;;24.10;1.00;;;;;;5085669;28;20461;-72
2022/06/24 12:59:58;;;;;;;2.83;0.40;;;23.90;1.00;;;;;;5092857;28;20831;-73
2022/06/24 13:02:26;;;;;;;1.83;0.50;;;23.80;1.00;;;;;;5093779;28;20472;-72
2022/06/24 13:04:56;;;;;;;0.70;0.40;;;23.80;1.00;;;;;;5094482;28;20446;-72
2022/06/24 13:07:23;;;;;;;0.50;0.50;;;23.70;1.00;;;;;;5093018;28;20457;-72
2022/06/24 13:09:52;;;;;;;0.70;0.57;;;23.40;1.00;;;;;;5093150;28;20523;-71
2022/06/24 13:12:19;;;;;;;0.77;0.50;;;22.80;81.70;;;;;;5094677;28;20454;-72
2022/06/24 13:14:47;;;;;;;1.73;0.70;;;22.40;89.70;;;;;;5093380;28;20477;-72
2022/06/24 13:17:14;;;;;;;1.30;0.60;;;21.90;99.90;;;;;;5092981;28;20674;-72